This is the latest recevied weather packets stored in our database for station/object KE5WTH-14. If no packets are shown the sender has not sent any weather packets the latest 1 day(s).
| Time | Temp. | Humidity | Pressure | Rain* | Wind** | Luminosity | Snow |
|---|---|---|---|---|---|---|---|
| 1778100185 | 16.67° C | 73% | 1014 hPa | 0 mm | - | 647 W/m² | - |
| 1778100065 | 16.67° C | 74% | 1014.1 hPa | 0 mm | - | 436 W/m² | - |
| 1778099944 | 16.67° C | 74% | 1014 hPa | 0 mm | - | 512 W/m² | - |
| 1778099706 | 16.11° C | 73% | 1014 hPa | 0 mm | - | 661 W/m² | - |
| 1778099434 | 16.11° C | 76% | 1014.2 hPa | 0 mm | - | 499 W/m² | - |
| 1778099346 | 16.11° C | 74% | 1014.2 hPa | 0 mm | - | 485 W/m² | - |
| 1778099012 | 15.56° C | 76% | 1014.4 hPa | 0 mm | - | 438 W/m² | - |
| 1778098701 | 15.56° C | 74% | 1014.4 hPa | 0 mm | - | 589 W/m² | - |
| 1778098641 | 15.56° C | 75% | 1014.5 hPa | 0 mm | - | 594 W/m² | - |
| 1778098584 | 16.11° C | 76% | 1014.5 hPa | 0 mm | - | 654 W/m² | - |
| 1778098454 | 15.56° C | 75% | 1014.5 hPa | 0 mm | - | 559 W/m² | - |
| 1778098394 | 15.56° C | 76% | 1014.6 hPa | 0 mm | - | 559 W/m² | - |
| 1778098333 | 15.56° C | 76% | 1014.6 hPa | 0 mm | - | 489 W/m² | - |
| 1778097785 | 15.56° C | 76% | 1014.7 hPa | 0 mm | - | 352 W/m² | - |
| 1778097665 | 15.56° C | 76% | 1014.7 hPa | 0 mm | - | 470 W/m² | - |
| 1778097484 | 15° C | 77% | 1014.8 hPa | 0 mm | - | 513 W/m² | - |
| 1778097426 | 15° C | 77% | 1014.8 hPa | 0 mm | - | 448 W/m² | - |
| 1778097305 | 15° C | 77% | 1015 hPa | 0 mm | - | 353 W/m² | - |
| 1778097064 | 15° C | 76% | 1015 hPa | 0 mm | - | 332 W/m² | - |
| 1778096673 | 15° C | 76% | 1014.8 hPa | 0 mm | - | 348 W/m² | - |
| 1778096644 | 15° C | 76% | 1014.8 hPa | 0 mm | - | 382 W/m² | - |
| 1778096614 | 15° C | 77% | 1014.8 hPa | 0 mm | - | 438 W/m² | - |
| 1778096373 | 15° C | 76% | 1014.7 hPa | 0 mm | - | 338 W/m² | - |
| 1778096250 | 15° C | 76% | 1014.8 hPa | 0 mm | - | 297 W/m² | - |
| 1778096127 | 15° C | 77% | 1014.9 hPa | 0 mm | - | 343 W/m² | - |
* Rain latest hour (hover to see other rain measurements)
** Current wind speed in m/s (hover to see current wind gust speed)